Deerfield, Kansas
Current Conditions -  °F | °C
As of 8:54 PM on Friday 28 Nov 2014 (Local Time) from KGCK Reporting Station
Clear Clear  
Wind Chill: 45°   Ceiling: Unl
Heat Index: 48°   Visibility: 10mi
Dew Point: 25°   Wind: 6mph
Humidity: 41%   Direction: 180°S
Pressure: 29.75"   Gusts: NA
Location:  37.98°N, 101.13°W
Report Text: KGCK 290254Z AUTO 18005KT 10SM CLR 09/M04 A2975 RMK AO2 SLP077 T00891039 58012
Loading
Personal Weather Stations






























Interactive Weather Map New forecast layout! Learn more

10-Day Weather Forecast

Advertisements
Track Severe Weather on mobile